Time;durP1;ratioP1;P1;durP2;ratioP2;P2;SDS_P1;SDS_P2;PMS_P1;PMS_P2;Temp;Humidity;BMP_temperature;BMP_pressure;BME280_temperature;BME280_humidity;BME280_pressure;Samples;Min_cycle;Max_cycle;Signal;HPM_P1;HPM_P2
2023/01/23 00:00:28;;;;;;;0.80;0.80;;;;;;;;;;6292823;28;20476;-77
2023/01/23 00:03:29;;;;;;;5.73;3.10;;;;;;;;;;6297811;28;20020;-77
2023/01/23 00:06:29;;;;;;;0.73;0.73;;;;;;;;;;6294953;28;20027;-78
2023/01/23 00:09:30;;;;;;;1.67;1.60;;;;;;;;;;6297366;28;20472;-78
2023/01/23 00:12:30;;;;;;;0.97;0.97;;;;;;;;;;6296552;28;20510;-77
2023/01/23 00:15:32;;;;;;;3.90;1.87;;;;;;;;;;6295807;28;20166;-78
2023/01/23 00:18:32;;;;;;;2.25;2.15;;;;;;;;;;6277807;28;20062;-77
2023/01/23 00:21:32;;;;;;;2.77;2.57;;;;;;;;;;6276752;28;20016;-77
2023/01/23 00:24:32;;;;;;;0.17;0.17;;;;;;;;;;6262600;28;20017;-77
2023/01/23 00:27:32;;;;;;;1.93;1.83;;;;;;;;;;6294134;28;20019;-77
2023/01/23 00:30:33;;;;;;;2.93;2.47;;;;;;;;;;6296389;28;20040;-78
2023/01/23 00:33:33;;;;;;;0.87;0.87;;;;;;;;;;6293827;28;20495;-77
2023/01/23 00:36:35;;;;;;;1.53;1.50;;;;;;;;;;6296109;28;20008;-77
2023/01/23 00:39:35;;;;;;;0.15;0.15;;;;;;;;;;6292992;28;20047;-77
2023/01/23 00:42:35;;;;;;;5.60;1.40;;;;;;;;;;6295620;28;20486;-77
2023/01/23 00:45:37;;;;;;;2.55;2.42;;;;;;;;;;6284438;28;20066;-78
2023/01/23 00:48:37;;;;;;;3.65;2.80;;;;;;;;;;6290166;28;20019;-78
2023/01/23 00:51:37;;;;;;;0.50;0.50;;;;;;;;;;6276538;28;20013;-77
2023/01/23 00:54:38;;;;;;;1.07;1.03;;;;;;;;;;6276763;28;20601;-77
2023/01/23 00:57:38;;;;;;;1.50;1.50;;;;;;;;;;6289638;28;20017;-78
2023/01/23 01:00:38;;;;;;;0.77;0.77;;;;;;;;;;6277748;28;20015;-78
2023/01/23 01:03:39;;;;;;;1.13;1.13;;;;;;;;;;6292041;28;20091;-78
2023/01/23 01:06:39;;;;;;;3.42;3.22;;;;;;;;;;6275215;28;20020;-78
2023/01/23 01:09:39;;;;;;;0.10;0.10;;;;;;;;;;6293967;28;20084;-78
2023/01/23 01:12:39;;;;;;;0.40;0.40;;;;;;;;;;6284663;28;20480;-78
2023/01/23 01:15:40;;;;;;;0.47;0.47;;;;;;;;;;6292295;28;20023;-78
2023/01/23 01:18:40;;;;;;;1.20;1.13;;;;;;;;;;6292663;28;20107;-78
2023/01/23 01:21:41;;;;;;;0.55;0.55;;;;;;;;;;6287093;28;20506;-78
2023/01/23 01:24:41;;;;;;;1.23;1.23;;;;;;;;;;6273857;28;20127;-78
2023/01/23 01:27:41;;;;;;;0.20;0.20;;;;;;;;;;6268849;28;20027;-78
2023/01/23 01:30:41;;;;;;;1.17;0.65;;;;;;;;;;6291670;28;20394;-78
2023/01/23 01:33:42;;;;;;;0.50;0.50;;;;;;;;;;6291829;28;20029;-78
2023/01/23 01:36:42;;;;;;;3.37;2.37;;;;;;;;;;6288148;28;20019;-78
2023/01/23 01:39:42;;;;;;;1.40;1.30;;;;;;;;;;6270492;28;20503;-78
2023/01/23 01:42:47;;;;;;;0.13;0.13;;;;;;;;;;6275995;28;20017;-78
2023/01/23 01:45:56;;;;;;;0.28;0.28;;;;;;;;;;6276238;28;20020;-78
2023/01/23 01:49:03;;;;;;;1.85;1.75;;;;;;;;;;6285919;28;20024;-78
2023/01/23 01:52:05;;;;;;;0.25;0.25;;;;;;;;;;6287684;28;20052;-78
2023/01/23 01:55:06;;;;;;;0.75;0.75;;;;;;;;;;6270591;28;20111;-78
2023/01/23 01:58:06;;;;;;;4.63;4.30;;;;;;;;;;6272467;28;20039;-78
2023/01/23 02:01:07;;;;;;;1.07;1.07;;;;;;;;;;6274738;28;20024;-79
2023/01/23 02:04:08;;;;;;;1.43;1.33;;;;;;;;;;6285128;28;20029;-78
2023/01/23 02:07:13;;;;;;;0.60;0.60;;;;;;;;;;6275926;28;20017;-78
2023/01/23 02:10:15;;;;;;;0.35;0.35;;;;;;;;;;6269784;28;20083;-78
2023/01/23 02:13:31;;;;;;;0.30;0.30;;;;;;;;;;6271006;28;20054;-78
2023/01/23 02:16:38;;;;;;;0.73;0.73;;;;;;;;;;6275695;28;20577;-78
2023/01/23 02:19:56;;;;;;;2.72;2.63;;;;;;;;;;6276408;28;20276;-79
2023/01/23 02:23:12;;;;;;;3.80;3.35;;;;;;;;;;6271976;28;20078;-79
2023/01/23 02:26:15;;;;;;;1.52;1.45;;;;;;;;;;6292199;28;20113;-79
2023/01/23 02:29:17;;;;;;;6.32;3.30;;;;;;;;;;6294052;28;20028;-79
2023/01/23 02:32:18;;;;;;;0.30;0.30;;;;;;;;;;6311689;28;20126;-79
2023/01/23 02:35:25;;;;;;;0.10;0.10;;;;;;;;;;6318756;28;20012;-79
2023/01/23 02:38:28;;;;;;;2.85;1.35;;;;;;;;;;6320837;28;20432;-79
2023/01/23 02:41:33;;;;;;;4.00;3.47;;;;;;;;;;6319462;28;20054;-78
2023/01/23 02:44:33;;;;;;;0.93;0.93;;;;;;;;;;6317260;28;20234;-78
2023/01/23 02:47:34;;;;;;;3.63;3.27;;;;;;;;;;6318731;28;20038;-78
2023/01/23 02:50:34;;;;;;;3.47;3.23;;;;;;;;;;6323279;28;20024;-78
2023/01/23 02:53:34;;;;;;;3.27;2.20;;;;;;;;;;6324107;28;20028;-78
2023/01/23 02:56:34;;;;;;;0.27;0.27;;;;;;;;;;6321559;28;20031;-78
2023/01/23 03:02:54;;;;;;;0.45;0.45;;;;;;;;;;6317754;28;20446;-78
2023/01/23 03:05:54;;;;;;;8.10;1.33;;;;;;;;;;6321285;28;20126;-78
2023/01/23 03:08:54;;;;;;;8.90;3.57;;;;;;;;;;6322814;28;20027;-79
2023/01/23 03:11:55;;;;;;;5.57;1.20;;;;;;;;;;6321890;28;20020;-78
2023/01/23 03:14:56;;;;;;;2.57;2.37;;;;;;;;;;6322597;28;20016;-79
2023/01/23 03:17:57;;;;;;;0.88;0.88;;;;;;;;;;6320039;28;20089;-78
2023/01/23 03:21:00;;;;;;;3.13;2.37;;;;;;;;;;6324026;28;20478;-79
2023/01/23 03:24:02;;;;;;;2.90;0.68;;;;;;;;;;6322524;28;20062;-79
2023/01/23 03:27:02;;;;;;;1.52;1.42;;;;;;;;;;6321561;28;20024;-78
2023/01/23 03:30:12;;;;;;;5.73;2.63;;;;;;;;;;6309246;28;20413;-78
2023/01/23 03:33:12;;;;;;;0.45;0.45;;;;;;;;;;6290935;28;20074;-78
2023/01/23 03:36:13;;;;;;;2.08;1.42;;;;;;;;;;6279385;28;20009;-79
2023/01/23 03:42:33;;;;;;;9.52;3.92;;;;;;;;;;6296065;28;20043;-79
2023/01/23 03:45:33;;;;;;;0.38;0.38;;;;;;;;;;6276010;28;20036;-79
2023/01/23 03:48:34;;;;;;;4.17;3.77;;;;;;;;;;6280819;28;20493;-79
2023/01/23 03:51:34;;;;;;;2.75;2.65;;;;;;;;;;6279526;28;20032;-79
2023/01/23 03:54:34;;;;;;;3.05;2.83;;;;;;;;;;6274693;28;20082;-79
2023/01/23 03:57:34;;;;;;;3.10;2.90;;;;;;;;;;6274922;28;20028;-79
2023/01/23 04:00:34;;;;;;;3.03;2.85;;;;;;;;;;6296401;28;20050;-79
2023/01/23 04:03:34;;;;;;;3.85;3.55;;;;;;;;;;6279524;28;20700;-78
2023/01/23 04:06:35;;;;;;;0.67;0.67;;;;;;;;;;6278092;28;20059;-78
2023/01/23 04:09:35;;;;;;;2.08;1.98;;;;;;;;;;6272493;28;20112;-79
2023/01/23 04:12:35;;;;;;;3.60;2.13;;;;;;;;;;6284685;28;20028;-78
2023/01/23 04:15:35;;;;;;;4.30;2.67;;;;;;;;;;6278768;28;20024;-78
2023/01/23 04:18:35;;;;;;;3.70;3.37;;;;;;;;;;6276011;28;20472;-79
2023/01/23 04:21:36;;;;;;;1.47;1.47;;;;;;;;;;6275126;28;20067;-78
2023/01/23 04:24:36;;;;;;;3.60;3.30;;;;;;;;;;6273648;28;20020;-78
2023/01/23 04:27:36;;;;;;;2.43;2.27;;;;;;;;;;6274439;28;20016;-79
2023/01/23 04:30:36;;;;;;;2.10;1.97;;;;;;;;;;6293815;28;20051;-79
2023/01/23 04:33:36;;;;;;;1.97;1.43;;;;;;;;;;6295508;28;20031;-78
2023/01/23 04:36:37;;;;;;;2.60;1.73;;;;;;;;;;6275819;28;20103;-78
2023/01/23 04:39:37;;;;;;;0.60;0.60;;;;;;;;;;6273262;28;20033;-79
2023/01/23 04:42:37;;;;;;;4.20;1.65;;;;;;;;;;6289252;28;20031;-79
2023/01/23 04:45:37;;;;;;;1.03;1.03;;;;;;;;;;6293637;28;20025;-79
2023/01/23 04:48:37;;;;;;;3.93;3.70;;;;;;;;;;6295024;28;20024;-79
2023/01/23 04:51:37;;;;;;;2.03;1.87;;;;;;;;;;6272558;28;20384;-79
2023/01/23 04:54:38;;;;;;;0.63;0.63;;;;;;;;;;6293241;28;20024;-79
2023/01/23 04:57:38;;;;;;;1.33;1.23;;;;;;;;;;6295897;28;20012;-79
2023/01/23 05:00:38;;;;;;;2.63;1.88;;;;;;;;;;6288903;28;20076;-79
2023/01/23 05:03:38;;;;;;;3.97;3.73;;;;;;;;;;6277321;28;20029;-79
2023/01/23 05:06:39;;;;;;;1.90;1.73;;;;;;;;;;6273613;28;20020;-79
2023/01/23 05:09:39;;;;;;;1.17;1.17;;;;;;;;;;6277712;28;20024;-79
2023/01/23 05:12:39;;;;;;;1.30;1.20;;;;;;;;;;6272462;28;20400;-78
2023/01/23 05:15:40;;;;;;;1.37;1.37;;;;;;;;;;6269643;28;20139;-78
2023/01/23 05:18:40;;;;;;;2.75;2.58;;;;;;;;;;6287814;28;20021;-78
2023/01/23 05:21:40;;;;;;;1.67;1.58;;;;;;;;;;6275026;28;20516;-78
2023/01/23 05:24:40;;;;;;;5.17;4.60;;;;;;;;;;6276993;28;20024;-79
2023/01/23 05:27:41;;;;;;;1.37;1.37;;;;;;;;;;6264752;28;20301;-79
2023/01/23 05:30:41;;;;;;;1.95;1.85;;;;;;;;;;6276799;28;20044;-78
2023/01/23 05:33:41;;;;;;;1.70;1.60;;;;;;;;;;6290901;28;20028;-79
2023/01/23 05:36:41;;;;;;;3.30;1.77;;;;;;;;;;6277052;28;20053;-79
2023/01/23 05:39:41;;;;;;;16.80;7.57;;;;;;;;;;6295237;28;20005;-79
2023/01/23 05:42:42;;;;;;;7.20;4.73;;;;;;;;;;6276125;28;20111;-79
2023/01/23 05:45:42;;;;;;;4.53;4.23;;;;;;;;;;6270809;28;20060;-78
2023/01/23 05:48:42;;;;;;;12.23;8.50;;;;;;;;;;6276843;28;20025;-78
2023/01/23 05:51:42;;;;;;;1.93;1.83;;;;;;;;;;6285233;28;20017;-78
2023/01/23 05:54:43;;;;;;;4.43;4.13;;;;;;;;;;6282861;28;20492;-79
2023/01/23 05:57:43;;;;;;;4.07;3.37;;;;;;;;;;6265342;28;20040;-79
2023/01/23 06:00:43;;;;;;;3.53;2.53;;;;;;;;;;6269935;28;20021;-79
2023/01/23 06:03:44;;;;;;;4.30;3.88;;;;;;;;;;6276931;28;20017;-79
2023/01/23 06:06:44;;;;;;;1.67;1.57;;;;;;;;;;6287453;28;20107;-79
2023/01/23 06:09:45;;;;;;;3.20;2.73;;;;;;;;;;6289831;28;20470;-78
2023/01/23 06:12:45;;;;;;;3.00;2.80;;;;;;;;;;6294978;28;20020;-79
2023/01/23 06:15:45;;;;;;;7.90;2.90;;;;;;;;;;6281316;28;20124;-78
2023/01/23 06:18:45;;;;;;;5.70;5.03;;;;;;;;;;6294240;28;20062;-79
2023/01/23 06:21:45;;;;;;;2.40;2.23;;;;;;;;;;6298677;28;20016;-79
2023/01/23 06:24:46;;;;;;;2.93;2.73;;;;;;;;;;6281493;28;20029;-79
2023/01/23 06:27:46;;;;;;;5.33;5.03;;;;;;;;;;6288859;28;20031;-78
2023/01/23 06:30:46;;;;;;;0.43;0.43;;;;;;;;;;6298857;28;20045;-77
2023/01/23 06:33:50;;;;;;;2.43;1.73;;;;;;;;;;6298056;28;20048;-77
2023/01/23 06:36:50;;;;;;;2.50;2.40;;;;;;;;;;6297835;28;20028;-78
2023/01/23 06:39:50;;;;;;;2.03;1.93;;;;;;;;;;6297792;28;20017;-79
2023/01/23 06:42:53;;;;;;;5.53;4.47;;;;;;;;;;6298580;28;20037;-78
2023/01/23 06:45:53;;;;;;;6.10;4.25;;;;;;;;;;6294186;28;20116;-78
2023/01/23 06:48:53;;;;;;;1.30;1.30;;;;;;;;;;6284086;28;20028;-78
2023/01/23 06:51:54;;;;;;;2.73;2.20;;;;;;;;;;6282299;28;20633;-78
2023/01/23 06:54:54;;;;;;;2.13;2.00;;;;;;;;;;6281794;28;20047;-78
2023/01/23 06:57:54;;;;;;;3.60;3.23;;;;;;;;;;6298301;28;20029;-79
2023/01/23 07:00:54;;;;;;;1.03;0.93;;;;;;;;;;6279628;28;20031;-79
2023/01/23 07:03:55;;;;;;;7.07;5.73;;;;;;;;;;6298664;28;20028;-79
2023/01/23 07:06:55;;;;;;;1.27;1.27;;;;;;;;;;6279988;28;20400;-78
2023/01/23 07:09:55;;;;;;;5.35;1.85;;;;;;;;;;6294251;28;20062;-78
2023/01/23 07:12:55;;;;;;;3.93;3.47;;;;;;;;;;6297584;28;20095;-78
2023/01/23 07:15:56;;;;;;;0.87;0.87;;;;;;;;;;6278649;28;20019;-78
2023/01/23 07:19:00;;;;;;;11.37;6.17;;;;;;;;;;6296988;28;20021;-77
2023/01/23 07:22:00;;;;;;;6.43;4.28;;;;;;;;;;6296508;28;20016;-79
2023/01/23 07:25:00;;;;;;;4.33;4.10;;;;;;;;;;6278978;28;20043;-78
2023/01/23 07:28:01;;;;;;;3.23;3.00;;;;;;;;;;6272972;28;20082;-78
2023/01/23 07:31:01;;;;;;;4.17;3.83;;;;;;;;;;6289039;28;20590;-78
2023/01/23 07:34:02;;;;;;;2.93;2.77;;;;;;;;;;6276532;28;20027;-78
2023/01/23 07:37:02;;;;;;;5.43;4.27;;;;;;;;;;6270270;28;20017;-78
2023/01/23 07:40:02;;;;;;;4.88;4.45;;;;;;;;;;6285843;28;20051;-78
2023/01/23 07:43:02;;;;;;;14.03;3.70;;;;;;;;;;6285143;28;20025;-78
2023/01/23 07:46:02;;;;;;;3.40;2.43;;;;;;;;;;6284791;28;20149;-78
2023/01/23 07:49:03;;;;;;;5.23;4.73;;;;;;;;;;6276270;28;20090;-78
2023/01/23 07:52:03;;;;;;;4.15;3.78;;;;;;;;;;6282869;28;20025;-78
2023/01/23 07:55:04;;;;;;;5.73;5.23;;;;;;;;;;6276887;28;20021;-78
2023/01/23 07:58:04;;;;;;;5.37;5.00;;;;;;;;;;6278827;28;20433;-78
2023/01/23 08:01:08;;;;;;;8.98;7.32;;;;;;;;;;6283669;28;20024;-78
2023/01/23 08:04:08;;;;;;;7.68;4.10;;;;;;;;;;6289757;28;20590;-78
2023/01/23 08:07:08;;;;;;;8.33;4.23;;;;;;;;;;6274427;28;20025;-78
2023/01/23 08:10:09;;;;;;;6.10;5.47;;;;;;;;;;6272301;28;20024;-78
2023/01/23 08:13:10;;;;;;;5.83;5.20;;;;;;;;;;6295019;28;20043;-78
2023/01/23 08:16:10;;;;;;;4.40;3.17;;;;;;;;;;6279254;28;20035;-78
2023/01/23 08:19:10;;;;;;;2.17;2.05;;;;;;;;;;6288643;28;20031;-78
2023/01/23 08:22:11;;;;;;;5.50;2.37;;;;;;;;;;6288526;28;20105;-78
2023/01/23 08:25:12;;;;;;;4.00;2.88;;;;;;;;;;6278068;28;20031;-78
2023/01/23 08:28:12;;;;;;;3.33;3.03;;;;;;;;;;6284693;28;20024;-78
2023/01/23 08:31:12;;;;;;;0.68;0.68;;;;;;;;;;6279834;28;20046;-78
2023/01/23 08:34:12;;;;;;;2.60;2.30;;;;;;;;;;6306734;28;20426;-78
2023/01/23 08:37:12;;;;;;;4.43;4.03;;;;;;;;;;6305616;28;20019;-78
2023/01/23 08:40:13;;;;;;;3.63;2.50;;;;;;;;;;6307041;28;20353;-78
2023/01/23 08:43:13;;;;;;;3.97;3.67;;;;;;;;;;6316407;28;20016;-78
2023/01/23 08:46:13;;;;;;;2.63;2.50;;;;;;;;;;6313326;28;20035;-78
2023/01/23 08:49:14;;;;;;;3.83;3.63;;;;;;;;;;6313027;28;20012;-78
2023/01/23 08:52:14;;;;;;;2.00;1.90;;;;;;;;;;6318407;28;20461;-77
2023/01/23 08:55:14;;;;;;;1.27;1.27;;;;;;;;;;6311217;28;20024;-77
2023/01/23 08:58:14;;;;;;;3.60;3.03;;;;;;;;;;6319526;28;20124;-78
2023/01/23 09:01:22;;;;;;;4.63;3.37;;;;;;;;;;6315915;28;20157;-78
2023/01/23 09:04:22;;;;;;;2.33;2.22;;;;;;;;;;6314832;28;20017;-78
2023/01/23 09:07:22;;;;;;;2.50;2.37;;;;;;;;;;6319508;28;20104;-78
2023/01/23 09:10:23;;;;;;;1.60;1.50;;;;;;;;;;6315695;28;20016;-77
2023/01/23 09:13:23;;;;;;;4.00;3.80;;;;;;;;;;6319762;28;20094;-78
2023/01/23 09:16:23;;;;;;;23.27;2.93;;;;;;;;;;6310828;28;20016;-78
2023/01/23 09:19:23;;;;;;;3.50;3.03;;;;;;;;;;6313790;28;20033;-77
2023/01/23 09:22:23;;;;;;;1.53;1.43;;;;;;;;;;6312096;28;20020;-78
2023/01/23 09:25:24;;;;;;;3.63;2.58;;;;;;;;;;6303707;28;20016;-77
2023/01/23 09:28:24;;;;;;;4.83;4.40;;;;;;;;;;6308745;28;20269;-77
2023/01/23 09:31:24;;;;;;;3.17;2.95;;;;;;;;;;6315760;28;20075;-77
2023/01/23 09:34:24;;;;;;;9.93;7.10;;;;;;;;;;6316967;28;20043;-77
2023/01/23 09:37:27;;;;;;;6.73;5.77;;;;;;;;;;6317163;28;20048;-78
2023/01/23 09:40:36;;;;;;;8.95;6.80;;;;;;;;;;6310297;28;20053;-78
2023/01/23 09:43:50;;;;;;;2.35;2.15;;;;;;;;;;6316216;28;20099;-78
2023/01/23 09:46:53;;;;;;;4.68;3.35;;;;;;;;;;6313020;28;20132;-78
2023/01/23 09:50:20;;;;;;;1.15;1.15;;;;;;;;;;6324581;28;20087;-78
2023/01/23 09:53:22;;;;;;;4.68;3.05;;;;;;;;;;6316958;28;20040;-78
2023/01/23 09:56:28;;;;;;;5.70;5.25;;;;;;;;;;6318439;28;20066;-78
2023/01/23 09:59:36;;;;;;;1.38;1.38;;;;;;;;;;6318932;28;20096;-79
2023/01/23 10:02:36;;;;;;;1.88;1.77;;;;;;;;;;6322130;28;20099;-78
2023/01/23 10:05:46;;;;;;;2.67;1.67;;;;;;;;;;6322262;28;20445;-78
2023/01/23 10:09:05;;;;;;;3.05;1.58;;;;;;;;;;6317920;28;20113;-78
2023/01/23 10:12:16;;;;;;;1.15;1.15;;;;;;;;;;6321688;28;20610;-79
2023/01/23 10:15:19;;;;;;;0.83;0.83;;;;;;;;;;6318832;28;20039;-79
2023/01/23 10:18:34;;;;;;;1.88;1.80;;;;;;;;;;6311629;28;20024;-79
2023/01/23 10:21:43;;;;;;;2.55;2.40;;;;;;;;;;6317340;28;20541;-79
2023/01/23 10:24:48;;;;;;;0.50;0.50;;;;;;;;;;6309515;28;20049;-79
2023/01/23 10:27:50;;;;;;;3.10;2.80;;;;;;;;;;6308716;28;20028;-79
2023/01/23 10:30:52;;;;;;;2.72;2.50;;;;;;;;;;6314384;28;20374;-79
2023/01/23 10:34:04;;;;;;;0.75;0.75;;;;;;;;;;6312928;28;20546;-78
2023/01/23 10:37:10;;;;;;;2.67;2.47;;;;;;;;;;6316881;28;20050;-78
2023/01/23 10:40:11;;;;;;;2.72;1.92;;;;;;;;;;6317741;28;20020;-79
2023/01/23 10:43:12;;;;;;;0.97;0.97;;;;;;;;;;6315935;28;20386;-79
2023/01/23 10:46:14;;;;;;;4.30;3.08;;;;;;;;;;6315188;28;20020;-79
2023/01/23 10:49:46;;;;;;;1.75;1.65;;;;;;;;;;6320169;28;20046;-79
2023/01/23 10:52:46;;;;;;;;;;;;;;;;;;6266543;28;20422;-78
2023/01/23 10:55:47;;;;;;;2.25;2.05;;;;;;;;;;6317036;28;20302;-78
2023/01/23 10:58:48;;;;;;;1.23;1.23;;;;;;;;;;6315623;28;20437;-78
2023/01/23 11:02:17;;;;;;;1.03;1.03;;;;;;;;;;6312823;28;20377;-77
2023/01/23 11:05:30;;;;;;;2.22;2.13;;;;;;;;;;6304620;28;20040;-77
2023/01/23 11:08:30;;;;;;;0.20;0.20;;;;;;;;;;6311977;28;20016;-77
2023/01/23 11:11:31;;;;;;;0.70;0.70;;;;;;;;;;6319227;28;20185;-77
2023/01/23 11:14:31;;;;;;;3.27;3.07;;;;;;;;;;6310839;28;20684;-77
2023/01/23 11:17:32;;;;;;;2.23;2.07;;;;;;;;;;6313286;28;20016;-77
2023/01/23 11:20:37;;;;;;;1.30;1.30;;;;;;;;;;6312733;28;20391;-77
2023/01/23 11:23:37;;;;;;;2.08;1.95;;;;;;;;;;6315684;28;20510;-77
2023/01/23 11:26:38;;;;;;;5.53;5.20;;;;;;;;;;6318014;28;20008;-76
2023/01/23 11:29:57;;;;;;;2.35;1.55;;;;;;;;;;6321034;28;20045;-76
2023/01/23 11:33:17;;;;;;;3.10;2.90;;;;;;;;;;6310004;28;20142;-76
2023/01/23 11:36:18;;;;;;;7.72;5.60;;;;;;;;;;6303014;28;20118;-76
2023/01/23 11:39:35;;;;;;;2.87;2.77;;;;;;;;;;6304860;28;20544;-76
2023/01/23 11:42:38;;;;;;;1.63;1.52;;;;;;;;;;6320191;28;20515;-76
2023/01/23 11:45:46;;;;;;;3.50;3.22;;;;;;;;;;6315604;28;20020;-76
2023/01/23 11:48:49;;;;;;;4.53;4.18;;;;;;;;;;6316501;28;20023;-76
2023/01/23 11:51:55;;;;;;;0.98;0.98;;;;;;;;;;6317444;28;20039;-75
2023/01/23 11:54:58;;;;;;;6.40;2.75;;;;;;;;;;6315082;28;20020;-76
2023/01/23 11:58:17;;;;;;;3.33;3.03;;;;;;;;;;6316369;28;20016;-75
2023/01/23 12:01:17;;;;;;;2.83;2.70;;;;;;;;;;6316711;28;20038;-75
2023/01/23 12:04:20;;;;;;;3.40;3.20;;;;;;;;;;6317786;28;20012;-75
2023/01/23 12:07:22;;;;;;;3.08;2.88;;;;;;;;;;6319708;28;20012;-75
2023/01/23 12:10:23;;;;;;;;;;;;;;;;;;6318876;28;20024;-76
2023/01/23 12:13:42;;;;;;;5.78;2.70;;;;;;;;;;6314618;28;19927;-76
2023/01/23 12:16:47;;;;;;;2.45;1.88;;;;;;;;;;6311437;28;20352;-76
2023/01/23 12:19:50;;;;;;;4.10;3.70;;;;;;;;;;6313711;28;20013;-76
2023/01/23 12:23:14;;;;;;;2.35;2.25;;;;;;;;;;6309544;28;20027;-76
2023/01/23 12:26:18;;;;;;;4.65;3.92;;;;;;;;;;6302214;28;20028;-75
2023/01/23 12:29:29;;;;;;;3.35;3.10;;;;;;;;;;6303777;28;20051;-75
2023/01/23 12:32:40;;;;;;;1.90;1.83;;;;;;;;;;6311268;28;20039;-75
2023/01/23 12:35:49;;;;;;;1.88;1.77;;;;;;;;;;6309771;28;20101;-75
2023/01/23 12:39:01;;;;;;;3.08;2.78;;;;;;;;;;6312201;28;20148;-75
2023/01/23 12:42:03;;;;;;;4.00;3.70;;;;;;;;;;6315905;28;20012;-75
2023/01/23 12:45:14;;;;;;;4.50;3.63;;;;;;;;;;6318617;28;20016;-75
2023/01/23 12:48:16;;;;;;;6.55;4.70;;;;;;;;;;6307027;28;20067;-75
2023/01/23 12:51:25;;;;;;;2.50;1.73;;;;;;;;;;6310904;28;20035;-75
2023/01/23 12:54:30;;;;;;;9.25;4.82;;;;;;;;;;6317998;28;20028;-75
2023/01/23 12:57:40;;;;;;;6.20;5.07;;;;;;;;;;6309651;28;20059;-75
2023/01/23 13:01:03;;;;;;;1.80;1.70;;;;;;;;;;6308758;28;20020;-75
2023/01/23 13:04:27;;;;;;;1.80;1.75;;;;;;;;;;6307712;28;20021;-74
2023/01/23 13:07:44;;;;;;;6.38;4.80;;;;;;;;;;6315585;28;20027;-74
2023/01/23 13:14:41;;;;;;;1.20;1.20;;;;;;;;;;6318785;28;20020;-74
2023/01/23 13:17:56;;;;;;;4.10;3.78;;;;;;;;;;6318788;28;20016;-75
2023/01/23 13:25:08;;;;;;;4.20;3.00;;;;;;;;;;6318805;28;20383;-74
2023/01/23 13:27:50;;;;;;;4.20;3.80;;;;;;;;;;6313618;28;20510;-74
2023/01/23 13:30:58;;;;;;;2.40;2.30;;;;;;;;;;6302928;28;20079;-75
2023/01/23 13:34:20;;;;;;;1.13;1.13;;;;;;;;;;6262126;28;20071;-75
2023/01/23 13:37:29;;;;;;;5.60;5.20;;;;;;;;;;6281830;28;20542;-75
2023/01/23 13:40:29;;;;;;;2.80;2.60;;;;;;;;;;6286752;28;20028;-75
2023/01/23 13:43:48;;;;;;;2.37;1.77;;;;;;;;;;6273967;28;20203;-75
2023/01/23 13:46:53;;;;;;;2.35;2.25;;;;;;;;;;6283691;28;20020;-75
2023/01/23 13:50:00;;;;;;;3.45;2.67;;;;;;;;;;6291764;28;20032;-75
2023/01/23 13:56:39;;;;;;;0.73;0.73;;;;;;;;;;6285420;28;20029;-75
2023/01/23 13:59:43;;;;;;;1.83;1.00;;;;;;;;;;6269882;28;20529;-75
2023/01/23 14:06:11;;;;;;;3.63;3.42;;;;;;;;;;6286594;28;20020;-75
2023/01/23 14:09:18;;;;;;;4.47;3.50;;;;;;;;;;6272034;28;20459;-75
2023/01/23 14:12:27;;;;;;;2.40;2.10;;;;;;;;;;6260804;28;20040;-76
2023/01/23 14:18:47;;;;;;;1.65;1.58;;;;;;;;;;6285346;28;20103;-75
2023/01/23 14:21:47;;;;;;;;;;;;;;;;;;6291566;28;20023;-76
2023/01/23 14:24:53;;;;;;;2.53;2.42;;;;;;;;;;6273743;28;19904;-76
2023/01/23 14:28:04;;;;;;;4.55;4.10;;;;;;;;;;6281705;28;20029;-76
2023/01/23 14:31:06;;;;;;;4.03;3.75;;;;;;;;;;6277117;28;20044;-75
2023/01/23 14:34:06;;;;;;;;;;;;;;;;;;6318821;28;20468;-76
2023/01/23 14:37:09;;;;;;;3.60;3.35;;;;;;;;;;6318557;28;20000;-76
2023/01/23 14:40:16;;;;;;;2.03;1.92;;;;;;;;;;6312583;28;20027;-77
2023/01/23 14:43:19;;;;;;;24.67;3.67;;;;;;;;;;6313833;28;20492;-77
2023/01/23 14:46:20;;;;;;;2.42;2.33;;;;;;;;;;6319399;28;20494;-77
2023/01/23 14:49:23;;;;;;;5.82;4.03;;;;;;;;;;6316226;28;20034;-77
2023/01/23 14:52:25;;;;;;;1.67;1.58;;;;;;;;;;6322572;28;20368;-77
2023/01/23 14:55:27;;;;;;;2.67;2.58;;;;;;;;;;6321624;28;20042;-77
2023/01/23 14:58:27;;;;;;;5.32;4.85;;;;;;;;;;6313037;28;20444;-76
2023/01/23 15:01:28;;;;;;;1.27;1.27;;;;;;;;;;6318883;28;20024;-77
2023/01/23 15:04:29;;;;;;;6.93;3.40;;;;;;;;;;6321127;28;20020;-77
2023/01/23 15:07:30;;;;;;;15.55;3.60;;;;;;;;;;6319100;28;20027;-77
2023/01/23 15:10:39;;;;;;;2.30;2.20;;;;;;;;;;6320081;28;20024;-76
2023/01/23 15:13:49;;;;;;;5.30;2.97;;;;;;;;;;6323504;28;20024;-76
2023/01/23 15:16:50;;;;;;;4.47;4.18;;;;;;;;;;6321404;28;20023;-77
2023/01/23 15:19:53;;;;;;;3.65;3.45;;;;;;;;;;6322128;28;20047;-77
2023/01/23 15:22:53;;;;;;;4.72;3.95;;;;;;;;;;6317701;28;20029;-77
2023/01/23 15:26:12;;;;;;;3.67;3.47;;;;;;;;;;6308911;28;20511;-77
2023/01/23 15:29:12;;;;;;;1.23;1.23;;;;;;;;;;6311939;28;20028;-77
2023/01/23 15:32:15;;;;;;;4.85;3.08;;;;;;;;;;6295431;28;20094;-77
2023/01/23 15:35:16;;;;;;;5.80;4.85;;;;;;;;;;6296231;28;20109;-77
2023/01/23 15:38:17;;;;;;;7.63;5.85;;;;;;;;;;6276688;28;20021;-77
2023/01/23 15:41:17;;;;;;;4.00;3.70;;;;;;;;;;6285055;28;20020;-77
2023/01/23 15:44:19;;;;;;;2.80;1.73;;;;;;;;;;6273207;28;20020;-77
2023/01/23 15:47:19;;;;;;;;;;;;;;;;;;6290441;28;20558;-76
2023/01/23 15:50:19;;;;;;;3.97;3.60;;;;;;;;;;6272886;28;20428;-76
2023/01/23 15:53:19;;;;;;;4.40;3.97;;;;;;;;;;6293988;28;20023;-77
2023/01/23 15:56:26;;;;;;;2.43;2.33;;;;;;;;;;6276172;28;20074;-76
2023/01/23 15:59:27;;;;;;;6.35;5.68;;;;;;;;;;6288381;28;20556;-76
2023/01/23 16:02:27;;;;;;;4.80;2.73;;;;;;;;;;6268814;28;20082;-76
2023/01/23 16:05:28;;;;;;;5.07;4.70;;;;;;;;;;6274391;28;20028;-77
2023/01/23 16:08:28;;;;;;;5.50;4.97;;;;;;;;;;6288112;28;20035;-76
2023/01/23 16:11:30;;;;;;;3.45;3.20;;;;;;;;;;6290631;28;20383;-76
2023/01/23 16:14:30;;;;;;;4.85;4.55;;;;;;;;;;6267930;28;20032;-77
2023/01/23 16:17:30;;;;;;;1.50;1.48;;;;;;;;;;6287857;28;20021;-77
2023/01/23 16:20:31;;;;;;;4.35;4.13;;;;;;;;;;6284901;28;20023;-76
2023/01/23 16:23:32;;;;;;;6.17;4.90;;;;;;;;;;6275984;28;20086;-76
2023/01/23 16:26:32;;;;;;;3.70;3.42;;;;;;;;;;6269184;28;20027;-76
2023/01/23 16:29:33;;;;;;;7.27;5.87;;;;;;;;;;6265022;28;20020;-77
2023/01/23 16:32:33;;;;;;;0.50;0.50;;;;;;;;;;6285163;28;20572;-77
2023/01/23 16:35:33;;;;;;;1.33;1.33;;;;;;;;;;6274540;28;20504;-77
2023/01/23 16:38:33;;;;;;;3.77;3.50;;;;;;;;;;6268981;28;20070;-77
2023/01/23 16:41:34;;;;;;;0.50;0.50;;;;;;;;;;6266463;28;20066;-77
2023/01/23 16:44:34;;;;;;;2.90;2.70;;;;;;;;;;6268511;28;20024;-77
2023/01/23 16:47:34;;;;;;;4.13;3.88;;;;;;;;;;6285106;28;20547;-77
2023/01/23 16:50:35;;;;;;;1.87;1.80;;;;;;;;;;6286428;28;20020;-77
2023/01/23 16:53:36;;;;;;;6.83;3.90;;;;;;;;;;6267560;28;20107;-77
2023/01/23 16:56:37;;;;;;;1.83;1.77;;;;;;;;;;6281541;28;20055;-77
2023/01/23 16:59:39;;;;;;;2.30;2.20;;;;;;;;;;6279846;28;20013;-76
2023/01/23 17:02:39;;;;;;;5.88;3.70;;;;;;;;;;6285675;28;20024;-77
2023/01/23 17:05:39;;;;;;;2.93;2.83;;;;;;;;;;6280868;28;20550;-77
2023/01/23 17:08:40;;;;;;;1.90;1.80;;;;;;;;;;6270999;28;20136;-77
2023/01/23 17:11:41;;;;;;;3.40;3.00;;;;;;;;;;6289213;28;20020;-77
2023/01/23 17:14:43;;;;;;;1.92;1.83;;;;;;;;;;6263823;28;20115;-76
2023/01/23 17:17:46;;;;;;;3.20;3.10;;;;;;;;;;6293016;28;20349;-76
2023/01/23 17:20:46;;;;;;;3.20;3.03;;;;;;;;;;6261703;28;20070;-77
2023/01/23 17:23:46;;;;;;;8.80;5.63;;;;;;;;;;6287893;28;20016;-77
2023/01/23 17:26:46;;;;;;;1.95;1.85;;;;;;;;;;6265139;28;20027;-76
2023/01/23 17:29:47;;;;;;;2.10;1.63;;;;;;;;;;6284103;28;20048;-77
2023/01/23 17:32:54;;;;;;;2.05;1.95;;;;;;;;;;6290990;28;20426;-76
2023/01/23 17:35:54;;;;;;;0.57;0.57;;;;;;;;;;6274807;28;20032;-76
2023/01/23 17:38:56;;;;;;;1.40;1.40;;;;;;;;;;6277755;28;20020;-77
2023/01/23 17:41:56;;;;;;;0.60;0.60;;;;;;;;;;6276912;28;20024;-77
2023/01/23 17:44:56;;;;;;;2.60;2.50;;;;;;;;;;6277678;28;20450;-76
2023/01/23 17:47:56;;;;;;;2.60;2.50;;;;;;;;;;6283577;28;20500;-76
2023/01/23 17:50:57;;;;;;;4.57;4.17;;;;;;;;;;6291469;28;20082;-76
2023/01/23 17:53:57;;;;;;;2.30;2.10;;;;;;;;;;6293790;28;20119;-77
2023/01/23 17:56:58;;;;;;;2.87;2.67;;;;;;;;;;6283755;28;20392;-77
2023/01/23 17:59:58;;;;;;;10.03;4.87;;;;;;;;;;6285767;28;20016;-77
2023/01/23 18:02:59;;;;;;;1.60;1.50;;;;;;;;;;6269333;28;20408;-77
2023/01/23 18:05:59;;;;;;;3.15;2.67;;;;;;;;;;6291306;28;20024;-77
2023/01/23 18:08:59;;;;;;;8.73;4.18;;;;;;;;;;6282399;28;20656;-76
2023/01/23 18:12:03;;;;;;;4.90;3.90;;;;;;;;;;6285754;28;20052;-76
2023/01/23 18:15:06;;;;;;;28.33;5.32;;;;;;;;;;6286092;28;20544;-77
2023/01/23 18:18:14;;;;;;;4.88;3.58;;;;;;;;;;6288557;28;20031;-77
2023/01/23 18:21:16;;;;;;;12.40;6.97;;;;;;;;;;6291971;28;20404;-77
2023/01/23 18:24:19;;;;;;;2.45;2.35;;;;;;;;;;6271648;28;20024;-77
2023/01/23 18:27:22;;;;;;;1.13;1.10;;;;;;;;;;6291451;28;20043;-77
2023/01/23 18:30:57;;;;;;;3.53;3.25;;;;;;;;;;6291924;28;20100;-77
2023/01/23 18:34:00;;;;;;;15.65;6.68;;;;;;;;;;6174033;28;20026;-77
2023/01/23 18:37:00;;;;;;;5.07;2.72;;;;;;;;;;6274057;28;20060;-77
2023/01/23 18:40:14;;;;;;;4.47;4.18;;;;;;;;;;6285837;28;20021;-78